sensor_id;sensor_type;location;lat;lon;timestamp;P1;durP1;ratioP1;P2;durP2;ratioP2
23169;SDS011;11753;43.144;24.714;2022-09-20T00:01:01;1.15;;;0.40;;
23169;SDS011;11753;43.144;24.714;2022-09-20T00:02:05;0.30;;;0.30;;
23169;SDS011;11753;43.144;24.714;2022-09-20T00:03:06;0.45;;;0.30;;
23169;SDS011;11753;43.144;24.714;2022-09-20T00:04:08;1.35;;;0.40;;
23169;SDS011;11753;43.144;24.714;2022-09-20T00:05:09;0.43;;;0.20;;
23169;SDS011;11753;43.144;24.714;2022-09-20T00:06:11;0.65;;;0.40;;
23169;SDS011;11753;43.144;24.714;2022-09-20T00:07:17;0.85;;;0.50;;
23169;SDS011;11753;43.144;24.714;2022-09-20T00:08:18;0.98;;;0.30;;
23169;SDS011;11753;43.144;24.714;2022-09-20T00:09:19;0.60;;;0.40;;
23169;SDS011;11753;43.144;24.714;2022-09-20T00:10:20;1.02;;;0.40;;
23169;SDS011;11753;43.144;24.714;2022-09-20T00:11:24;0.30;;;0.30;;
23169;SDS011;11753;43.144;24.714;2022-09-20T00:12:30;1.17;;;0.63;;
23169;SDS011;11753;43.144;24.714;2022-09-20T00:13:32;0.40;;;0.30;;
23169;SDS011;11753;43.144;24.714;2022-09-20T00:14:34;0.95;;;0.43;;
23169;SDS011;11753;43.144;24.714;2022-09-20T00:15:39;1.02;;;0.40;;
23169;SDS011;11753;43.144;24.714;2022-09-20T00:16:43;1.77;;;0.50;;
23169;SDS011;11753;43.144;24.714;2022-09-20T00:17:44;1.20;;;0.50;;
23169;SDS011;11753;43.144;24.714;2022-09-20T00:18:49;0.50;;;0.40;;
23169;SDS011;11753;43.144;24.714;2022-09-20T00:19:51;1.35;;;0.40;;
23169;SDS011;11753;43.144;24.714;2022-09-20T00:20:52;0.98;;;0.50;;
23169;SDS011;11753;43.144;24.714;2022-09-20T00:21:52;0.95;;;0.47;;
23169;SDS011;11753;43.144;24.714;2022-09-20T00:22:53;0.45;;;0.30;;
23169;SDS011;11753;43.144;24.714;2022-09-20T00:23:54;2.00;;;0.50;;
23169;SDS011;11753;43.144;24.714;2022-09-20T00:24:59;1.10;;;0.50;;
23169;SDS011;11753;43.144;24.714;2022-09-20T00:26:00;1.08;;;0.40;;
23169;SDS011;11753;43.144;24.714;2022-09-20T00:27:02;1.63;;;0.60;;
23169;SDS011;11753;43.144;24.714;2022-09-20T00:28:04;1.55;;;0.60;;
23169;SDS011;11753;43.144;24.714;2022-09-20T00:29:07;0.68;;;0.43;;
23169;SDS011;11753;43.144;24.714;2022-09-20T00:30:08;0.70;;;0.50;;
23169;SDS011;11753;43.144;24.714;2022-09-20T00:31:09;1.35;;;0.50;;
23169;SDS011;11753;43.144;24.714;2022-09-20T00:32:11;1.33;;;0.70;;
23169;SDS011;11753;43.144;24.714;2022-09-20T00:33:12;1.23;;;0.60;;
23169;SDS011;11753;43.144;24.714;2022-09-20T00:34:13;1.05;;;0.60;;
23169;SDS011;11753;43.144;24.714;2022-09-20T00:35:32;0.90;;;0.57;;
23169;SDS011;11753;43.144;24.714;2022-09-20T00:36:33;2.25;;;0.60;;
23169;SDS011;11753;43.144;24.714;2022-09-20T00:37:35;2.90;;;0.60;;
23169;SDS011;11753;43.144;24.714;2022-09-20T00:38:38;0.73;;;0.52;;
23169;SDS011;11753;43.144;24.714;2022-09-20T00:39:39;0.85;;;0.50;;
23169;SDS011;11753;43.144;24.714;2022-09-20T00:40:41;3.33;;;0.57;;
23169;SDS011;11753;43.144;24.714;2022-09-20T00:41:43;1.27;;;0.65;;
23169;SDS011;11753;43.144;24.714;2022-09-20T00:42:45;2.63;;;0.80;;
23169;SDS011;11753;43.144;24.714;2022-09-20T00:43:47;1.42;;;0.68;;
23169;SDS011;11753;43.144;24.714;2022-09-20T00:44:57;0.95;;;0.60;;
23169;SDS011;11753;43.144;24.714;2022-09-20T00:46:05;1.65;;;0.90;;
23169;SDS011;11753;43.144;24.714;2022-09-20T00:47:28;2.38;;;0.60;;
23169;SDS011;11753;43.144;24.714;2022-09-20T00:48:35;0.93;;;0.68;;
23169;SDS011;11753;43.144;24.714;2022-09-20T00:49:35;1.40;;;0.77;;
23169;SDS011;11753;43.144;24.714;2022-09-20T00:50:45;1.55;;;0.80;;
23169;SDS011;11753;43.144;24.714;2022-09-20T00:51:51;1.98;;;0.98;;
23169;SDS011;11753;43.144;24.714;2022-09-20T00:53:02;1.60;;;0.80;;
23169;SDS011;11753;43.144;24.714;2022-09-20T00:54:07;1.48;;;0.75;;
23169;SDS011;11753;43.144;24.714;2022-09-20T00:55:10;1.42;;;0.90;;
23169;SDS011;11753;43.144;24.714;2022-09-20T00:56:15;1.75;;;1.00;;
23169;SDS011;11753;43.144;24.714;2022-09-20T00:57:19;1.25;;;0.98;;
23169;SDS011;11753;43.144;24.714;2022-09-20T00:58:20;1.65;;;1.10;;
23169;SDS011;11753;43.144;24.714;2022-09-20T00:59:29;1.33;;;1.00;;
23169;SDS011;11753;43.144;24.714;2022-09-20T01:00:32;2.03;;;1.10;;
23169;SDS011;11753;43.144;24.714;2022-09-20T01:01:33;2.35;;;1.10;;
23169;SDS011;11753;43.144;24.714;2022-09-20T01:02:36;1.48;;;0.98;;
23169;SDS011;11753;43.144;24.714;2022-09-20T01:03:51;1.85;;;1.10;;
23169;SDS011;11753;43.144;24.714;2022-09-20T01:04:52;2.28;;;1.30;;
23169;SDS011;11753;43.144;24.714;2022-09-20T01:05:57;2.85;;;1.10;;
23169;SDS011;11753;43.144;24.714;2022-09-20T01:07:02;1.83;;;1.23;;
23169;SDS011;11753;43.144;24.714;2022-09-20T01:08:06;1.45;;;1.00;;
23169;SDS011;11753;43.144;24.714;2022-09-20T01:09:10;2.53;;;1.17;;
23169;SDS011;11753;43.144;24.714;2022-09-20T01:10:11;2.70;;;1.30;;
23169;SDS011;11753;43.144;24.714;2022-09-20T01:11:11;2.20;;;1.30;;
23169;SDS011;11753;43.144;24.714;2022-09-20T01:12:12;1.55;;;1.05;;
23169;SDS011;11753;43.144;24.714;2022-09-20T01:13:17;2.55;;;1.23;;
23169;SDS011;11753;43.144;24.714;2022-09-20T01:14:18;1.88;;;1.20;;
23169;SDS011;11753;43.144;24.714;2022-09-20T01:15:19;2.13;;;1.25;;
23169;SDS011;11753;43.144;24.714;2022-09-20T01:16:22;2.10;;;1.48;;
23169;SDS011;11753;43.144;24.714;2022-09-20T01:17:26;2.20;;;1.20;;
23169;SDS011;11753;43.144;24.714;2022-09-20T01:18:30;2.20;;;1.33;;
23169;SDS011;11753;43.144;24.714;2022-09-20T01:20:49;1.75;;;1.20;;
23169;SDS011;11753;43.144;24.714;2022-09-20T01:21:50;2.00;;;1.38;;
23169;SDS011;11753;43.144;24.714;2022-09-20T01:23:11;2.15;;;1.30;;
23169;SDS011;11753;43.144;24.714;2022-09-20T01:24:32;2.53;;;1.40;;
23169;SDS011;11753;43.144;24.714;2022-09-20T01:27:46;3.15;;;1.23;;
23169;SDS011;11753;43.144;24.714;2022-09-20T01:28:52;2.03;;;1.35;;
23169;SDS011;11753;43.144;24.714;2022-09-20T01:30:24;2.20;;;1.30;;
23169;SDS011;11753;43.144;24.714;2022-09-20T01:31:33;3.22;;;1.30;;
23169;SDS011;11753;43.144;24.714;2022-09-20T01:32:45;2.17;;;1.35;;
23169;SDS011;11753;43.144;24.714;2022-09-20T01:34:54;3.60;;;1.20;;
23169;SDS011;11753;43.144;24.714;2022-09-20T01:36:00;2.53;;;1.50;;
23169;SDS011;11753;43.144;24.714;2022-09-20T01:42:03;3.05;;;1.33;;
23169;SDS011;11753;43.144;24.714;2022-09-20T01:45:45;2.15;;;1.10;;
23169;SDS011;11753;43.144;24.714;2022-09-20T01:46:55;2.28;;;1.50;;
23169;SDS011;11753;43.144;24.714;2022-09-20T01:48:11;3.35;;;1.58;;
23169;SDS011;11753;43.144;24.714;2022-09-20T02:00:26;2.90;;;1.50;;
23169;SDS011;11753;43.144;24.714;2022-09-20T02:03:01;3.38;;;1.50;;
23169;SDS011;11753;43.144;24.714;2022-09-20T02:05:25;2.22;;;1.38;;
23169;SDS011;11753;43.144;24.714;2022-09-20T02:11:39;2.20;;;1.40;;
23169;SDS011;11753;43.144;24.714;2022-09-20T02:13:02;2.38;;;1.50;;
23169;SDS011;11753;43.144;24.714;2022-09-20T02:14:22;2.05;;;1.27;;
23169;SDS011;11753;43.144;24.714;2022-09-20T02:21:43;2.17;;;1.42;;
23169;SDS011;11753;43.144;24.714;2022-09-20T02:26:54;2.05;;;1.15;;
23169;SDS011;11753;43.144;24.714;2022-09-20T02:28:35;1.80;;;1.40;;
23169;SDS011;11753;43.144;24.714;2022-09-20T02:40:23;2.33;;;1.20;;
23169;SDS011;11753;43.144;24.714;2022-09-20T02:41:29;4.45;;;1.20;;
23169;SDS011;11753;43.144;24.714;2022-09-20T02:42:41;2.05;;;1.48;;
23169;SDS011;11753;43.144;24.714;2022-09-20T02:45:06;1.65;;;1.35;;
23169;SDS011;11753;43.144;24.714;2022-09-20T02:46:25;1.40;;;1.20;;
23169;SDS011;11753;43.144;24.714;2022-09-20T02:47:37;2.17;;;1.30;;
23169;SDS011;11753;43.144;24.714;2022-09-20T02:48:50;1.90;;;1.45;;
23169;SDS011;11753;43.144;24.714;2022-09-20T02:55:02;1.92;;;1.38;;
23169;SDS011;11753;43.144;24.714;2022-09-20T02:56:12;3.38;;;1.40;;
23169;SDS011;11753;43.144;24.714;2022-09-20T02:59:26;2.70;;;1.60;;
23169;SDS011;11753;43.144;24.714;2022-09-20T03:00:36;2.65;;;1.23;;
23169;SDS011;11753;43.144;24.714;2022-09-20T03:11:13;1.90;;;1.23;;
23169;SDS011;11753;43.144;24.714;2022-09-20T03:12:48;2.67;;;1.53;;
23169;SDS011;11753;43.144;24.714;2022-09-20T03:15:19;1.85;;;1.30;;
23169;SDS011;11753;43.144;24.714;2022-09-20T03:16:45;2.03;;;1.48;;
23169;SDS011;11753;43.144;24.714;2022-09-20T03:18:06;2.40;;;1.52;;
23169;SDS011;11753;43.144;24.714;2022-09-20T03:20:40;2.65;;;1.88;;
23169;SDS011;11753;43.144;24.714;2022-09-20T03:24:32;2.85;;;1.50;;
23169;SDS011;11753;43.144;24.714;2022-09-20T03:27:04;3.97;;;1.60;;
23169;SDS011;11753;43.144;24.714;2022-09-20T03:28:21;2.03;;;1.40;;
23169;SDS011;11753;43.144;24.714;2022-09-20T03:35:06;2.42;;;1.63;;
23169;SDS011;11753;43.144;24.714;2022-09-20T03:36:27;2.45;;;1.65;;
23169;SDS011;11753;43.144;24.714;2022-09-20T03:38:42;2.83;;;1.90;;
23169;SDS011;11753;43.144;24.714;2022-09-20T03:42:33;1.85;;;1.40;;
23169;SDS011;11753;43.144;24.714;2022-09-20T03:45:18;3.97;;;1.58;;
23169;SDS011;11753;43.144;24.714;2022-09-20T03:46:40;3.80;;;1.83;;
23169;SDS011;11753;43.144;24.714;2022-09-20T03:49:38;3.35;;;1.73;;
23169;SDS011;11753;43.144;24.714;2022-09-20T03:50:50;2.85;;;1.45;;
23169;SDS011;11753;43.144;24.714;2022-09-20T03:56:34;4.15;;;1.70;;
23169;SDS011;11753;43.144;24.714;2022-09-20T04:13:24;2.03;;;1.45;;
23169;SDS011;11753;43.144;24.714;2022-09-20T04:14:33;2.60;;;1.70;;
23169;SDS011;11753;43.144;24.714;2022-09-20T04:15:52;2.17;;;1.50;;
23169;SDS011;11753;43.144;24.714;2022-09-20T04:17:21;3.88;;;1.80;;
23169;SDS011;11753;43.144;24.714;2022-09-20T04:18:44;2.25;;;1.60;;
23169;SDS011;11753;43.144;24.714;2022-09-20T04:20:22;3.63;;;1.60;;
23169;SDS011;11753;43.144;24.714;2022-09-20T04:22:56;2.45;;;1.40;;
23169;SDS011;11753;43.144;24.714;2022-09-20T04:25:24;2.40;;;1.67;;
23169;SDS011;11753;43.144;24.714;2022-09-20T04:26:30;2.83;;;1.80;;
23169;SDS011;11753;43.144;24.714;2022-09-20T04:27:40;2.75;;;1.85;;
23169;SDS011;11753;43.144;24.714;2022-09-20T04:28:51;2.25;;;1.70;;
23169;SDS011;11753;43.144;24.714;2022-09-20T04:34:34;2.80;;;1.60;;
23169;SDS011;11753;43.144;24.714;2022-09-20T04:37:35;4.47;;;1.65;;
23169;SDS011;11753;43.144;24.714;2022-09-20T04:38:39;2.30;;;1.58;;
23169;SDS011;11753;43.144;24.714;2022-09-20T04:39:46;2.00;;;1.50;;
23169;SDS011;11753;43.144;24.714;2022-09-20T04:48:56;3.25;;;2.10;;
23169;SDS011;11753;43.144;24.714;2022-09-20T04:54:33;3.58;;;1.90;;
23169;SDS011;11753;43.144;24.714;2022-09-20T04:57:19;3.40;;;1.98;;
23169;SDS011;11753;43.144;24.714;2022-09-20T05:03:57;2.80;;;1.70;;
23169;SDS011;11753;43.144;24.714;2022-09-20T05:05:24;2.63;;;1.50;;
23169;SDS011;11753;43.144;24.714;2022-09-20T05:06:41;3.05;;;1.80;;
23169;SDS011;11753;43.144;24.714;2022-09-20T05:15:19;4.22;;;1.77;;
23169;SDS011;11753;43.144;24.714;2022-09-20T05:20:32;3.90;;;1.85;;
23169;SDS011;11753;43.144;24.714;2022-09-20T05:28:17;2.78;;;1.52;;
23169;SDS011;11753;43.144;24.714;2022-09-20T05:32:15;2.47;;;1.45;;
23169;SDS011;11753;43.144;24.714;2022-09-20T05:33:41;2.10;;;1.25;;
23169;SDS011;11753;43.144;24.714;2022-09-20T05:35:00;2.70;;;1.27;;
23169;SDS011;11753;43.144;24.714;2022-09-20T05:36:16;2.78;;;1.50;;
23169;SDS011;11753;43.144;24.714;2022-09-20T05:37:38;2.03;;;1.38;;
23169;SDS011;11753;43.144;24.714;2022-09-20T05:38:49;2.10;;;1.20;;
23169;SDS011;11753;43.144;24.714;2022-09-20T05:48:16;2.08;;;1.27;;
23169;SDS011;11753;43.144;24.714;2022-09-20T05:51:46;2.53;;;1.40;;
23169;SDS011;11753;43.144;24.714;2022-09-20T05:54:52;1.30;;;0.93;;
23169;SDS011;11753;43.144;24.714;2022-09-20T06:01:18;1.30;;;0.90;;
23169;SDS011;11753;43.144;24.714;2022-09-20T06:08:06;14.15;;;5.22;;
23169;SDS011;11753;43.144;24.714;2022-09-20T06:12:42;3.88;;;1.50;;
23169;SDS011;11753;43.144;24.714;2022-09-20T06:15:21;4.05;;;1.70;;
23169;SDS011;11753;43.144;24.714;2022-09-20T06:22:52;1.67;;;0.88;;
23169;SDS011;11753;43.144;24.714;2022-09-20T06:23:55;2.92;;;0.90;;
23169;SDS011;11753;43.144;24.714;2022-09-20T06:26:13;1.33;;;0.80;;
23169;SDS011;11753;43.144;24.714;2022-09-20T06:27:24;2.22;;;0.90;;
23169;SDS011;11753;43.144;24.714;2022-09-20T06:28:40;1.33;;;0.70;;
23169;SDS011;11753;43.144;24.714;2022-09-20T06:29:47;2.58;;;0.80;;
23169;SDS011;11753;43.144;24.714;2022-09-20T06:30:53;1.52;;;0.80;;
23169;SDS011;11753;43.144;24.714;2022-09-20T06:31:54;1.08;;;0.60;;
23169;SDS011;11753;43.144;24.714;2022-09-20T06:32:56;1.95;;;1.00;;
23169;SDS011;11753;43.144;24.714;2022-09-20T06:37:39;1.40;;;0.90;;
23169;SDS011;11753;43.144;24.714;2022-09-20T06:40:47;2.90;;;1.00;;
23169;SDS011;11753;43.144;24.714;2022-09-20T06:42:08;1.80;;;0.82;;
23169;SDS011;11753;43.144;24.714;2022-09-20T06:43:10;1.38;;;0.70;;
23169;SDS011;11753;43.144;24.714;2022-09-20T06:44:13;1.35;;;0.68;;
23169;SDS011;11753;43.144;24.714;2022-09-20T06:45:14;4.28;;;1.00;;
23169;SDS011;11753;43.144;24.714;2022-09-20T06:46:15;1.63;;;0.88;;
23169;SDS011;11753;43.144;24.714;2022-09-20T06:47:16;3.72;;;0.90;;
23169;SDS011;11753;43.144;24.714;2022-09-20T06:48:18;1.65;;;0.70;;
23169;SDS011;11753;43.144;24.714;2022-09-20T06:49:19;1.33;;;0.70;;
23169;SDS011;11753;43.144;24.714;2022-09-20T06:50:23;3.28;;;0.60;;
23169;SDS011;11753;43.144;24.714;2022-09-20T06:51:25;1.95;;;1.00;;
23169;SDS011;11753;43.144;24.714;2022-09-20T06:52:28;3.47;;;1.15;;
23169;SDS011;11753;43.144;24.714;2022-09-20T06:53:30;2.58;;;1.15;;
23169;SDS011;11753;43.144;24.714;2022-09-20T06:54:32;3.90;;;1.20;;
23169;SDS011;11753;43.144;24.714;2022-09-20T06:55:34;2.60;;;1.58;;
23169;SDS011;11753;43.144;24.714;2022-09-20T06:56:40;1.48;;;1.00;;
23169;SDS011;11753;43.144;24.714;2022-09-20T06:57:43;1.38;;;0.77;;
23169;SDS011;11753;43.144;24.714;2022-09-20T06:58:44;1.48;;;0.70;;
23169;SDS011;11753;43.144;24.714;2022-09-20T06:59:45;1.38;;;0.80;;
23169;SDS011;11753;43.144;24.714;2022-09-20T07:00:46;3.22;;;1.30;;
23169;SDS011;11753;43.144;24.714;2022-09-20T07:01:47;1.90;;;0.88;;
23169;SDS011;11753;43.144;24.714;2022-09-20T07:02:48;1.80;;;0.52;;
23169;SDS011;11753;43.144;24.714;2022-09-20T07:03:49;1.45;;;0.60;;
23169;SDS011;11753;43.144;24.714;2022-09-20T07:04:50;1.50;;;0.70;;
23169;SDS011;11753;43.144;24.714;2022-09-20T07:05:54;2.05;;;1.00;;
23169;SDS011;11753;43.144;24.714;2022-09-20T07:06:59;2.72;;;0.60;;
23169;SDS011;11753;43.144;24.714;2022-09-20T07:08:01;1.35;;;0.70;;
23169;SDS011;11753;43.144;24.714;2022-09-20T07:09:02;1.42;;;0.60;;
23169;SDS011;11753;43.144;24.714;2022-09-20T07:10:04;1.30;;;0.70;;
23169;SDS011;11753;43.144;24.714;2022-09-20T07:11:06;1.80;;;0.70;;
23169;SDS011;11753;43.144;24.714;2022-09-20T07:12:11;1.92;;;0.90;;
23169;SDS011;11753;43.144;24.714;2022-09-20T07:13:14;1.80;;;0.40;;
23169;SDS011;11753;43.144;24.714;2022-09-20T07:14:14;1.48;;;0.63;;
23169;SDS011;11753;43.144;24.714;2022-09-20T07:15:15;0.85;;;0.50;;
23169;SDS011;11753;43.144;24.714;2022-09-20T07:16:16;0.70;;;0.50;;
23169;SDS011;11753;43.144;24.714;2022-09-20T07:17:17;1.20;;;0.57;;
23169;SDS011;11753;43.144;24.714;2022-09-20T07:18:18;2.20;;;0.57;;
23169;SDS011;11753;43.144;24.714;2022-09-20T07:19:19;1.38;;;0.85;;
23169;SDS011;11753;43.144;24.714;2022-09-20T07:20:22;1.10;;;0.65;;
23169;SDS011;11753;43.144;24.714;2022-09-20T07:21:23;1.73;;;0.50;;
23169;SDS011;11753;43.144;24.714;2022-09-20T07:22:24;1.05;;;0.40;;
23169;SDS011;11753;43.144;24.714;2022-09-20T07:23:28;0.40;;;0.30;;
23169;SDS011;11753;43.144;24.714;2022-09-20T07:24:29;1.30;;;0.55;;
23169;SDS011;11753;43.144;24.714;2022-09-20T07:25:31;0.60;;;0.40;;
23169;SDS011;11753;43.144;24.714;2022-09-20T07:26:31;1.20;;;0.50;;
23169;SDS011;11753;43.144;24.714;2022-09-20T07:27:32;1.55;;;0.85;;
23169;SDS011;11753;43.144;24.714;2022-09-20T07:28:33;2.20;;;0.60;;
23169;SDS011;11753;43.144;24.714;2022-09-20T07:29:34;1.17;;;0.50;;
23169;SDS011;11753;43.144;24.714;2022-09-20T07:30:35;2.25;;;0.47;;
23169;SDS011;11753;43.144;24.714;2022-09-20T07:31:37;0.90;;;0.50;;
23169;SDS011;11753;43.144;24.714;2022-09-20T07:32:37;4.25;;;0.65;;
23169;SDS011;11753;43.144;24.714;2022-09-20T07:33:39;2.38;;;0.70;;
23169;SDS011;11753;43.144;24.714;2022-09-20T07:34:40;0.90;;;0.40;;
23169;SDS011;11753;43.144;24.714;2022-09-20T07:35:41;0.65;;;0.43;;
23169;SDS011;11753;43.144;24.714;2022-09-20T07:36:42;0.55;;;0.40;;
23169;SDS011;11753;43.144;24.714;2022-09-20T07:37:43;0.90;;;0.60;;
23169;SDS011;11753;43.144;24.714;2022-09-20T07:38:49;1.10;;;0.55;;
23169;SDS011;11753;43.144;24.714;2022-09-20T07:39:52;0.65;;;0.52;;
23169;SDS011;11753;43.144;24.714;2022-09-20T07:40:57;0.70;;;0.50;;
23169;SDS011;11753;43.144;24.714;2022-09-20T07:41:59;1.10;;;0.60;;
23169;SDS011;11753;43.144;24.714;2022-09-20T07:43:05;2.05;;;0.75;;
23169;SDS011;11753;43.144;24.714;2022-09-20T07:44:05;0.93;;;0.60;;
23169;SDS011;11753;43.144;24.714;2022-09-20T07:45:26;1.00;;;0.60;;
23169;SDS011;11753;43.144;24.714;2022-09-20T07:46:27;1.70;;;0.60;;
23169;SDS011;11753;43.144;24.714;2022-09-20T07:47:29;1.33;;;0.50;;
23169;SDS011;11753;43.144;24.714;2022-09-20T07:48:34;1.13;;;0.60;;
23169;SDS011;11753;43.144;24.714;2022-09-20T07:49:37;1.63;;;0.52;;
23169;SDS011;11753;43.144;24.714;2022-09-20T07:50:37;1.48;;;0.50;;
23169;SDS011;11753;43.144;24.714;2022-09-20T07:51:38;1.80;;;0.70;;
23169;SDS011;11753;43.144;24.714;2022-09-20T07:52:39;0.98;;;0.60;;
23169;SDS011;11753;43.144;24.714;2022-09-20T07:53:40;1.13;;;0.47;;
23169;SDS011;11753;43.144;24.714;2022-09-20T07:54:41;0.40;;;0.40;;
23169;SDS011;11753;43.144;24.714;2022-09-20T07:55:41;1.13;;;0.50;;
23169;SDS011;11753;43.144;24.714;2022-09-20T07:56:55;1.67;;;0.45;;
23169;SDS011;11753;43.144;24.714;2022-09-20T07:57:56;1.05;;;0.50;;
23169;SDS011;11753;43.144;24.714;2022-09-20T07:58:57;0.90;;;0.52;;
23169;SDS011;11753;43.144;24.714;2022-09-20T08:00:01;1.25;;;0.70;;
23169;SDS011;11753;43.144;24.714;2022-09-20T08:01:04;1.65;;;0.60;;
23169;SDS011;11753;43.144;24.714;2022-09-20T08:02:12;0.73;;;0.50;;
23169;SDS011;11753;43.144;24.714;2022-09-20T08:03:15;1.10;;;0.70;;
23169;SDS011;11753;43.144;24.714;2022-09-20T08:04:16;1.20;;;0.60;;
23169;SDS011;11753;43.144;24.714;2022-09-20T08:05:17;0.77;;;0.50;;
23169;SDS011;11753;43.144;24.714;2022-09-20T08:06:17;0.90;;;0.50;;
23169;SDS011;11753;43.144;24.714;2022-09-20T08:07:20;2.60;;;1.02;;
23169;SDS011;11753;43.144;24.714;2022-09-20T08:08:21;3.05;;;1.27;;
23169;SDS011;11753;43.144;24.714;2022-09-20T08:09:22;1.38;;;0.73;;
23169;SDS011;11753;43.144;24.714;2022-09-20T08:10:23;0.70;;;0.40;;
23169;SDS011;11753;43.144;24.714;2022-09-20T08:11:26;0.95;;;0.40;;
23169;SDS011;11753;43.144;24.714;2022-09-20T08:12:29;3.05;;;1.20;;
23169;SDS011;11753;43.144;24.714;2022-09-20T08:13:35;3.70;;;0.70;;
23169;SDS011;11753;43.144;24.714;2022-09-20T08:14:37;1.50;;;0.75;;
23169;SDS011;11753;43.144;24.714;2022-09-20T08:15:38;1.58;;;0.47;;
23169;SDS011;11753;43.144;24.714;2022-09-20T08:16:40;3.22;;;1.65;;
23169;SDS011;11753;43.144;24.714;2022-09-20T08:17:45;1.05;;;0.60;;
23169;SDS011;11753;43.144;24.714;2022-09-20T08:18:51;1.90;;;0.98;;
23169;SDS011;11753;43.144;24.714;2022-09-20T08:19:55;1.85;;;0.70;;
23169;SDS011;11753;43.144;24.714;2022-09-20T08:21:01;1.25;;;0.50;;
23169;SDS011;11753;43.144;24.714;2022-09-20T08:22:06;1.02;;;0.32;;
23169;SDS011;11753;43.144;24.714;2022-09-20T08:23:07;0.55;;;0.45;;
23169;SDS011;11753;43.144;24.714;2022-09-20T08:24:09;1.15;;;0.30;;
23169;SDS011;11753;43.144;24.714;2022-09-20T08:25:10;1.35;;;0.57;;
23169;SDS011;11753;43.144;24.714;2022-09-20T08:26:12;0.70;;;0.45;;
23169;SDS011;11753;43.144;24.714;2022-09-20T08:27:15;1.27;;;0.45;;
23169;SDS011;11753;43.144;24.714;2022-09-20T08:28:16;1.30;;;0.60;;
23169;SDS011;11753;43.144;24.714;2022-09-20T08:29:16;1.13;;;0.43;;
23169;SDS011;11753;43.144;24.714;2022-09-20T08:30:17;0.75;;;0.50;;
23169;SDS011;11753;43.144;24.714;2022-09-20T08:31:19;1.70;;;0.50;;
23169;SDS011;11753;43.144;24.714;2022-09-20T08:32:21;2.42;;;0.70;;
23169;SDS011;11753;43.144;24.714;2022-09-20T08:33:22;1.80;;;0.63;;
23169;SDS011;11753;43.144;24.714;2022-09-20T08:34:23;0.93;;;0.40;;
23169;SDS011;11753;43.144;24.714;2022-09-20T08:35:24;2.25;;;0.70;;
23169;SDS011;11753;43.144;24.714;2022-09-20T08:36:26;1.65;;;0.50;;
23169;SDS011;11753;43.144;24.714;2022-09-20T08:37:27;1.08;;;0.60;;
23169;SDS011;11753;43.144;24.714;2022-09-20T08:38:29;1.65;;;0.57;;
23169;SDS011;11753;43.144;24.714;2022-09-20T08:39:31;1.52;;;0.70;;
23169;SDS011;11753;43.144;24.714;2022-09-20T08:40:32;2.28;;;1.00;;
23169;SDS011;11753;43.144;24.714;2022-09-20T08:41:44;1.25;;;0.70;;
23169;SDS011;11753;43.144;24.714;2022-09-20T08:42:48;2.03;;;0.60;;
23169;SDS011;11753;43.144;24.714;2022-09-20T08:45:05;1.02;;;0.55;;
23169;SDS011;11753;43.144;24.714;2022-09-20T08:46:14;3.38;;;1.40;;
23169;SDS011;11753;43.144;24.714;2022-09-20T08:47:35;5.85;;;1.48;;
23169;SDS011;11753;43.144;24.714;2022-09-20T08:48:43;6.28;;;2.70;;
23169;SDS011;11753;43.144;24.714;2022-09-20T08:49:45;1.40;;;0.60;;
23169;SDS011;11753;43.144;24.714;2022-09-20T08:50:47;2.30;;;0.95;;
23169;SDS011;11753;43.144;24.714;2022-09-20T08:51:49;2.90;;;1.10;;
23169;SDS011;11753;43.144;24.714;2022-09-20T08:52:54;1.25;;;0.52;;
23169;SDS011;11753;43.144;24.714;2022-09-20T08:53:58;1.23;;;0.60;;
23169;SDS011;11753;43.144;24.714;2022-09-20T08:54:59;0.95;;;0.55;;
23169;SDS011;11753;43.144;24.714;2022-09-20T08:56:00;7.13;;;2.17;;
23169;SDS011;11753;43.144;24.714;2022-09-20T08:57:05;0.88;;;0.50;;
23169;SDS011;11753;43.144;24.714;2022-09-20T08:58:13;2.58;;;0.47;;
23169;SDS011;11753;43.144;24.714;2022-09-20T08:59:17;3.22;;;0.65;;
23169;SDS011;11753;43.144;24.714;2022-09-20T09:00:23;1.23;;;0.50;;
23169;SDS011;11753;43.144;24.714;2022-09-20T09:01:26;0.20;;;0.20;;
23169;SDS011;11753;43.144;24.714;2022-09-20T09:02:32;0.95;;;0.30;;
23169;SDS011;11753;43.144;24.714;2022-09-20T09:03:33;0.93;;;0.40;;
23169;SDS011;11753;43.144;24.714;2022-09-20T09:04:35;1.42;;;0.35;;
23169;SDS011;11753;43.144;24.714;2022-09-20T09:05:37;0.60;;;0.32;;
23169;SDS011;11753;43.144;24.714;2022-09-20T09:06:44;1.52;;;0.57;;
23169;SDS011;11753;43.144;24.714;2022-09-20T09:07:45;3.13;;;1.00;;
23169;SDS011;11753;43.144;24.714;2022-09-20T09:08:46;1.80;;;0.70;;
23169;SDS011;11753;43.144;24.714;2022-09-20T09:09:51;3.38;;;0.50;;
23169;SDS011;11753;43.144;24.714;2022-09-20T09:11:01;1.08;;;0.40;;
23169;SDS011;11753;43.144;24.714;2022-09-20T09:13:34;1.95;;;0.50;;
23169;SDS011;11753;43.144;24.714;2022-09-20T09:14:42;0.80;;;0.32;;
23169;SDS011;11753;43.144;24.714;2022-09-20T09:15:54;0.55;;;0.35;;
23169;SDS011;11753;43.144;24.714;2022-09-20T09:17:02;2.17;;;0.40;;
23169;SDS011;11753;43.144;24.714;2022-09-20T09:18:04;0.73;;;0.38;;
23169;SDS011;11753;43.144;24.714;2022-09-20T09:19:24;2.28;;;0.50;;
23169;SDS011;11753;43.144;24.714;2022-09-20T09:20:30;0.95;;;0.43;;
23169;SDS011;11753;43.144;24.714;2022-09-20T09:21:41;0.93;;;0.40;;
23169;SDS011;11753;43.144;24.714;2022-09-20T09:22:43;0.70;;;0.45;;
23169;SDS011;11753;43.144;24.714;2022-09-20T09:24:03;3.08;;;0.50;;
23169;SDS011;11753;43.144;24.714;2022-09-20T09:25:28;1.30;;;0.50;;
23169;SDS011;11753;43.144;24.714;2022-09-20T09:26:35;2.05;;;0.40;;
23169;SDS011;11753;43.144;24.714;2022-09-20T09:27:59;3.00;;;0.40;;
23169;SDS011;11753;43.144;24.714;2022-09-20T09:29:18;0.88;;;0.40;;
23169;SDS011;11753;43.144;24.714;2022-09-20T09:30:30;0.70;;;0.30;;
23169;SDS011;11753;43.144;24.714;2022-09-20T09:31:35;0.73;;;0.40;;
23169;SDS011;11753;43.144;24.714;2022-09-20T09:32:37;0.55;;;0.40;;
23169;SDS011;11753;43.144;24.714;2022-09-20T09:33:44;1.85;;;0.38;;
23169;SDS011;11753;43.144;24.714;2022-09-20T09:34:49;1.02;;;0.40;;
23169;SDS011;11753;43.144;24.714;2022-09-20T09:35:54;1.17;;;0.45;;
23169;SDS011;11753;43.144;24.714;2022-09-20T09:36:58;0.85;;;0.30;;
23169;SDS011;11753;43.144;24.714;2022-09-20T09:38:00;1.13;;;0.40;;
23169;SDS011;11753;43.144;24.714;2022-09-20T09:40:26;4.32;;;1.80;;
23169;SDS011;11753;43.144;24.714;2022-09-20T09:41:30;3.42;;;0.93;;
23169;SDS011;11753;43.144;24.714;2022-09-20T09:42:34;1.58;;;0.68;;
23169;SDS011;11753;43.144;24.714;2022-09-20T09:43:35;1.25;;;0.63;;
23169;SDS011;11753;43.144;24.714;2022-09-20T09:44:39;1.38;;;0.40;;
23169;SDS011;11753;43.144;24.714;2022-09-20T09:45:40;1.70;;;0.60;;
23169;SDS011;11753;43.144;24.714;2022-09-20T09:46:43;1.20;;;0.43;;
23169;SDS011;11753;43.144;24.714;2022-09-20T09:47:44;2.10;;;0.50;;
23169;SDS011;11753;43.144;24.714;2022-09-20T09:48:45;0.63;;;0.40;;
23169;SDS011;11753;43.144;24.714;2022-09-20T09:49:55;0.38;;;0.32;;
23169;SDS011;11753;43.144;24.714;2022-09-20T09:52:16;0.73;;;0.40;;
23169;SDS011;11753;43.144;24.714;2022-09-20T09:53:24;0.95;;;0.50;;
23169;SDS011;11753;43.144;24.714;2022-09-20T09:54:26;0.60;;;0.30;;
23169;SDS011;11753;43.144;24.714;2022-09-20T09:57:09;1.75;;;0.50;;
23169;SDS011;11753;43.144;24.714;2022-09-20T09:58:28;0.63;;;0.38;;
23169;SDS011;11753;43.144;24.714;2022-09-20T10:01:19;1.13;;;0.50;;
23169;SDS011;11753;43.144;24.714;2022-09-20T10:06:01;1.88;;;0.50;;